• Join FlightAware (Why Join?)
  • Login
  • US Flag 
02:24AM EDT


 

Airport Tracker/Info


-or-


 

Live Flight TrackerFlight Track Log ✈ EJA831 ✈ 10-May-2013 ✈ KAMA - KSLC

Flight Track Log - Related Links

Times and Time Zones

All times are in EDT time to prevent confusion due to time zone crossing. See the EJA831 flight status page for this flight to view local times or setup timezone preferences in your user account.

Time Position Orientation Groundspeed Altitude Reporting Facility
EDT Latitude Longitude Course Direction KTS MPH feet Rate Location/Type
02:02PM 35.3133 -101.7889 312° West 256 295 11,100  Level Albuquerque Center
02:03PM 35.3539 -101.8647 303° West 265 305 14,900 3,480 Climbing Albuquerque Center
02:04PM 35.4056 -101.9611 303° West 278 320 18,400 3,060 Climbing Albuquerque Center
02:05PM 35.4508 -102.0475 303° West 294 338 21,300 2,580 Climbing Albuquerque Center
02:06PM 35.5748 -102.3328 302° West  Level FlightAware Approximate
02:06PM 35.4997 -102.1381 304° West 311 358 23,800  Level Albuquerque Center
02:07PM 35.5500 -102.2336 303° West 329 379 26,300 2,400 Climbing Albuquerque Center
02:08PM 35.6006 -102.3289 303° West 332 382 28,800 2,220 Climbing Albuquerque Center
02:09PM 35.6519 -102.4267 303° West 337 388 30,900 2,040 Climbing Albuquerque Center
02:10PM 35.7156 -102.5475 303° West 348 400 33,100 1,800 Climbing Albuquerque Center
02:11PM 35.7697 -102.6511 303° West 357 411 34,600 1,440 Climbing Albuquerque Center
02:12PM 35.8247 -102.7564 303° West 364 419 36,100 1,320 Climbing Albuquerque Center
02:13PM 35.8789 -102.8597 303° West 362 417 37,400 900 Climbing Albuquerque Center
02:14PM 35.9378 -102.9742 302° West 365 420 38,000 240 Climbing Albuquerque Center
02:15PM 35.9961 -103.0861 303° West 380 437 38,000  Level Albuquerque Center
02:16PM 36.0567 -103.2056 302° West 400 460 38,000  Level Albuquerque Center
02:17PM 36.1189 -103.3258 303° West 409 471 38,000  Level Albuquerque Center
02:18PM 36.1808 -103.4461 303° West 412 474 38,000  Level Albuquerque Center
02:19PM 36.2508 -103.5853 302° West 408 470 38,000  Level Albuquerque Center
02:20PM 36.3117 -103.7042 302° West 407 468 38,000  Level Albuquerque Center
02:22PM 36.3717 -103.8225 302° West 404 465 38,000  Level Albuquerque Center
02:23PM 36.4306 -103.9414 302° West 404 465 38,000  Level Albuquerque Center
02:24PM 36.4908 -104.0617 302° West 406 467 38,000  Level Albuquerque Center
02:25PM 36.5514 -104.1797 303° West 404 465 38,000  Level Albuquerque Center
02:26PM 36.6108 -104.2975 302° West 402 463 38,000  Level Albuquerque Center
02:27PM 36.6694 -104.4169 301° West 401 461 38,000  Level Albuquerque Center
02:28PM 36.7397 -104.5558 302° West 405 466 38,000  Level Albuquerque Center
02:29PM 36.7964 -104.6719 301° West 408 470 38,000  Level Albuquerque Center
02:30PM 36.8631 -104.8078 302° West 410 472 38,000  Level Albuquerque Center
02:31PM 36.9200 -104.9239 302° West 409 471 38,000  Level Albuquerque Center
02:32PM 36.9778 -105.0428 301° West 413 475 38,000  Level Albuquerque Center
02:33PM 37.0447 -105.1800 301° West 413 475 38,000  Level Albuquerque Center
02:34PM 37.1022 -105.3006 301° West 418 481 38,000  Level Albuquerque Center
02:35PM 37.1692 -105.4386 301° West 416 479 38,000  Level Albuquerque Center
02:36PM 37.2364 -105.5786 301° West 413 475 38,000  Level Denver Center
02:37PM 37.3050 -105.7236 301° West 412 474 38,000  Level Denver Center
02:38PM 37.3633 -105.8386 303° West 409 471 38,000  Level Denver Center
02:39PM 37.4292 -105.9464 308° West 406 467 38,000  Level Denver Center
02:40PM 37.5047 -106.0731 307° West 405 466 38,000  Level Denver Center
02:41PM 37.5683 -106.1822 306° West 405 466 38,000  Level Denver Center
02:42PM 37.6450 -106.3100 307° West 408 470 38,000  Level Denver Center
02:44PM 37.7092 -106.4186 307° West 405 466 38,000  Level Denver Center
02:45PM 37.7931 -106.5639 306° West 400 460 38,000  Level Denver Center
02:46PM 37.8611 -106.6778 307° West 403 464 38,000  Level Denver Center
02:47PM 37.9356 -106.8053 307° West 404 465 38,000  Level Denver Center
02:48PM 37.9994 -106.9147 307° West 403 464 38,000  Level Denver Center
02:49PM 38.0697 -107.0481 304° West 407 468 38,000  Level Denver Center
02:50PM 38.1242 -107.1550 303° West 408 470 38,000  Level Denver Center
02:51PM 38.1883 -107.2800 303° West 410 472 38,000  Level Denver Center
02:52PM 38.2567 -107.4192 302° West 414 476 38,000  Level Denver Center
02:53PM 38.3164 -107.5381 303° West 415 478 38,000  Level Denver Center
02:54PM 38.3861 -107.6789 302° West 420 483 38,000  Level Denver Center
02:55PM 38.4439 -107.8000 301° West 417 480 38,000  Level Denver Center
02:56PM 38.5153 -107.9378 304° West 418 481 38,000  Level Denver Center
02:57PM 38.5733 -108.0569 302° West 413 475 38,000  Level Denver Center
02:58PM 38.6419 -108.1936 303° West 408 470 38,000  Level Denver Center
02:59PM 38.6994 -108.3136 302° West 412 474 38,000  Level Denver Center
03:00PM 38.7589 -108.4331 303° West 414 476 38,000  Level Denver Center
03:01PM 38.8272 -108.5750 302° West 417 480 38,000  Level Denver Center
03:02PM 38.9042 -108.7350 302° West 411 473 38,000  Level Denver Center
03:03PM 38.9619 -108.8558 302° West 413 475 38,000  Level Denver Center
03:04PM 39.0200 -108.9772 302° West 415 478 38,000  Level Denver Center
03:05PM 39.0894 -109.1211 302° West 422 486 38,000  Level Denver Center
03:06PM 39.1483 -109.2458 301° West 422 486 38,000  Level Denver Center
03:07PM 39.2161 -109.3919 301° West 426 490 38,000 -360 Level Denver Center
03:09PM 39.2744 -109.5139 302° West 417 480 37,300 -900 Descending Denver Center
03:10PM 39.3319 -109.6372 301° West 417 480 36,200 -1,260 Descending Denver Center
03:11PM 39.4006 -109.7836 301° West 424 488 34,800 -1,200 Descending Denver Center
03:12PM 39.4594 -109.9092 301° West 425 489 33,800 -1,080 Descending Denver Center
03:13PM 39.5281 -110.0575 301° West 428 493 32,600 -900 Descending Denver Center
03:14PM 39.5858 -110.1842 301° West 429 494 32,000 -300 Descending Denver Center
03:15PM 39.6550 -110.3339 301° West 430 495 32,000 -420 Level Denver Center
03:16PM 39.7144 -110.4625 301° West 433 498 31,200 -1,320 Descending Denver Center
03:17PM 39.7692 -110.5922 299° West 430 495 29,300 -2,040 Descending Denver Center
03:18PM 39.8294 -110.7486 297° West 433 498 27,100 -2,100 Descending Denver Center
03:19PM 39.8872 -110.9019 296° West 424 488 25,000 -1,860 Descending Salt Lake Center
03:20PM 39.9378 -111.0300 297° West 416 479 23,200 -1,800 Descending Salt Lake Center
03:21PM 40.0164 -111.1564 309° West 404 465 21,300 -1,920 Descending Salt Lake Center
03:22PM 40.0853 -111.2586 311° West 392 451 19,300 -1,860 Descending Salt Lake Center
03:23PM 40.1397 -111.3561 306° West 342 394 17,500 -1,620 Descending Salt Lake Center
03:24PM 40.1561 -111.4706 281° West 320 368 16,000 -840 Descending Salt Lake Center
03:25PM 40.1633 -111.5728 275° West 320 368 16,100 -120 Climbing Salt Lake Center
03:25PM 40.1703 -111.5875 302° West 324 373 15,900  Descending Salt Lake Center
03:25PM 40.1736 -111.6450 274° West 330 380 16,100 -120 Climbing Salt Lake Center
03:26PM 40.1933 -111.6997 295° West 322 371 15,800 -720 Descending Salt Lake Center
03:26PM 40.2183 -111.7394 310° West 320 368 15,400 -1,260 Descending Salt Lake Center
03:27PM 40.2775 -111.7825 331° Northwest 319 367 14,500 -1,020 Descending Salt Lake Center
03:27PM 40.2922 -111.8069 308° West 323 372 14,400 -1,200 Descending Salt Lake Center
03:28PM 40.3492 -111.8458 333° Northwest 312 359 13,200 -1,920 Descending Salt Lake Center
03:29PM 40.4181 -111.9061 326° Northwest 300 345 11,000 -2,160 Descending Salt Lake Center
03:30PM 40.4908 -111.9292 346° North 274 315 8,900 -1,260 Descending Salt Lake Center
03:31PM 40.5614 -111.9378 355° North 259 298 8,400 -960 Descending Salt Lake Center
03:32PM 40.6394 -111.9511 353° North 265 305 7,000 -1,320 Descending Salt Lake Center
03:33PM 40.7103 -111.9581 356° North 221 254 5,700 -1,140 Descending Salt Lake Center
03:34PM 40.7472 -111.9628 354° North 152 175 4,800 -780 Descending Salt Lake Center
03:35PM 40.7858 -111.9619 North 129 148 4,100 -660 Descending Salt Lake Center
03:37PM 40.7833 -111.9667 North  Level FlightAware Approximate